sensor_id;sensor_type;location;lat;lon;timestamp;temperature;humidity
10566;DHT22;5331;48.148;16.326;2022-11-20T00:00:20;1.30;1.00
10566;DHT22;5331;48.148;16.326;2022-11-20T00:02:47;1.30;1.00
10566;DHT22;5331;48.148;16.326;2022-11-20T00:05:14;1.40;1.00
10566;DHT22;5331;48.148;16.326;2022-11-20T00:07:41;1.30;1.00
10566;DHT22;5331;48.148;16.326;2022-11-20T00:10:08;1.30;1.00
10566;DHT22;5331;48.148;16.326;2022-11-20T00:12:35;1.30;1.00
10566;DHT22;5331;48.148;16.326;2022-11-20T00:15:02;1.40;1.00
10566;DHT22;5331;48.148;16.326;2022-11-20T00:17:30;1.30;1.00
10566;DHT22;5331;48.148;16.326;2022-11-20T00:19:57;1.30;1.00
10566;DHT22;5331;48.148;16.326;2022-11-20T00:22:24;1.40;1.00
10566;DHT22;5331;48.148;16.326;2022-11-20T00:24:51;1.40;1.00
10566;DHT22;5331;48.148;16.326;2022-11-20T00:27:18;1.40;1.00
10566;DHT22;5331;48.148;16.326;2022-11-20T00:29:45;1.40;1.00
10566;DHT22;5331;48.148;16.326;2022-11-20T00:32:12;1.40;1.00
10566;DHT22;5331;48.148;16.326;2022-11-20T00:34:40;1.40;1.00
10566;DHT22;5331;48.148;16.326;2022-11-20T00:37:07;1.40;1.00
10566;DHT22;5331;48.148;16.326;2022-11-20T00:39:34;1.40;1.00
10566;DHT22;5331;48.148;16.326;2022-11-20T00:42:01;1.40;1.00
10566;DHT22;5331;48.148;16.326;2022-11-20T00:44:27;1.50;1.00
10566;DHT22;5331;48.148;16.326;2022-11-20T00:46:54;1.50;1.00
10566;DHT22;5331;48.148;16.326;2022-11-20T00:49:21;1.50;1.00
10566;DHT22;5331;48.148;16.326;2022-11-20T00:51:50;1.50;1.00
10566;DHT22;5331;48.148;16.326;2022-11-20T00:54:16;1.50;1.00
10566;DHT22;5331;48.148;16.326;2022-11-20T00:56:43;1.50;1.00
10566;DHT22;5331;48.148;16.326;2022-11-20T00:59:10;1.50;1.00
10566;DHT22;5331;48.148;16.326;2022-11-20T01:01:38;1.50;1.00
10566;DHT22;5331;48.148;16.326;2022-11-20T01:04:05;1.50;1.00
10566;DHT22;5331;48.148;16.326;2022-11-20T01:06:33;1.50;1.00
10566;DHT22;5331;48.148;16.326;2022-11-20T01:09:04;1.50;1.00
10566;DHT22;5331;48.148;16.326;2022-11-20T01:11:33;1.50;1.00
10566;DHT22;5331;48.148;16.326;2022-11-20T01:14:02;1.50;1.00
10566;DHT22;5331;48.148;16.326;2022-11-20T01:16:31;1.50;1.00
10566;DHT22;5331;48.148;16.326;2022-11-20T01:19:00;1.50;1.00
10566;DHT22;5331;48.148;16.326;2022-11-20T01:21:29;1.50;1.00
10566;DHT22;5331;48.148;16.326;2022-11-20T01:23:57;1.50;1.00
10566;DHT22;5331;48.148;16.326;2022-11-20T01:26:28;1.50;1.00
10566;DHT22;5331;48.148;16.326;2022-11-20T01:28:56;1.50;1.00
10566;DHT22;5331;48.148;16.326;2022-11-20T01:31:25;1.50;1.00
10566;DHT22;5331;48.148;16.326;2022-11-20T01:33:54;1.50;1.00
10566;DHT22;5331;48.148;16.326;2022-11-20T01:36:23;1.40;1.00
10566;DHT22;5331;48.148;16.326;2022-11-20T01:38:51;1.40;1.00
10566;DHT22;5331;48.148;16.326;2022-11-20T01:41:19;1.40;1.00
10566;DHT22;5331;48.148;16.326;2022-11-20T01:44:02;1.40;1.00
10566;DHT22;5331;48.148;16.326;2022-11-20T01:46:29;1.30;1.00
10566;DHT22;5331;48.148;16.326;2022-11-20T01:48:59;1.30;1.00
10566;DHT22;5331;48.148;16.326;2022-11-20T01:51:35;1.30;1.00
10566;DHT22;5331;48.148;16.326;2022-11-20T01:54:09;1.30;1.00
10566;DHT22;5331;48.148;16.326;2022-11-20T01:56:41;1.30;1.00
10566;DHT22;5331;48.148;16.326;2022-11-20T01:59:12;1.40;1.00
10566;DHT22;5331;48.148;16.326;2022-11-20T02:01:40;1.30;1.00
10566;DHT22;5331;48.148;16.326;2022-11-20T02:04:08;1.30;1.00
10566;DHT22;5331;48.148;16.326;2022-11-20T02:06:38;1.20;1.00
10566;DHT22;5331;48.148;16.326;2022-11-20T02:09:05;1.30;1.00
10566;DHT22;5331;48.148;16.326;2022-11-20T02:11:32;1.20;1.00
10566;DHT22;5331;48.148;16.326;2022-11-20T02:13:59;1.30;1.00
10566;DHT22;5331;48.148;16.326;2022-11-20T02:16:30;1.20;1.00
10566;DHT22;5331;48.148;16.326;2022-11-20T02:18:59;1.20;1.00
10566;DHT22;5331;48.148;16.326;2022-11-20T02:21:33;1.20;1.00
10566;DHT22;5331;48.148;16.326;2022-11-20T02:24:08;1.20;1.00
10566;DHT22;5331;48.148;16.326;2022-11-20T02:26:45;1.20;1.00
10566;DHT22;5331;48.148;16.326;2022-11-20T02:29:14;1.20;1.00
10566;DHT22;5331;48.148;16.326;2022-11-20T02:31:43;1.20;1.00
10566;DHT22;5331;48.148;16.326;2022-11-20T02:34:10;1.20;1.00
10566;DHT22;5331;48.148;16.326;2022-11-20T02:36:39;1.20;1.00
10566;DHT22;5331;48.148;16.326;2022-11-20T02:39:09;1.20;1.00
10566;DHT22;5331;48.148;16.326;2022-11-20T02:41:38;1.20;1.00
10566;DHT22;5331;48.148;16.326;2022-11-20T02:44:05;1.30;1.00
10566;DHT22;5331;48.148;16.326;2022-11-20T02:46:33;1.30;1.00
10566;DHT22;5331;48.148;16.326;2022-11-20T02:49:01;1.30;1.00
10566;DHT22;5331;48.148;16.326;2022-11-20T02:51:28;1.30;1.00
10566;DHT22;5331;48.148;16.326;2022-11-20T02:53:55;1.30;1.00
10566;DHT22;5331;48.148;16.326;2022-11-20T02:56:24;1.30;1.00
10566;DHT22;5331;48.148;16.326;2022-11-20T02:58:51;1.30;1.00
10566;DHT22;5331;48.148;16.326;2022-11-20T03:01:18;1.40;1.00
10566;DHT22;5331;48.148;16.326;2022-11-20T03:03:45;1.30;1.00
10566;DHT22;5331;48.148;16.326;2022-11-20T03:06:14;1.40;1.00
10566;DHT22;5331;48.148;16.326;2022-11-20T03:08:41;1.40;1.00
10566;DHT22;5331;48.148;16.326;2022-11-20T03:11:09;1.40;1.00
10566;DHT22;5331;48.148;16.326;2022-11-20T03:13:37;1.50;1.00
10566;DHT22;5331;48.148;16.326;2022-11-20T03:16:11;1.50;1.00
10566;DHT22;5331;48.148;16.326;2022-11-20T03:18:39;1.50;1.00
10566;DHT22;5331;48.148;16.326;2022-11-20T03:21:06;1.40;1.00
10566;DHT22;5331;48.148;16.326;2022-11-20T03:23:34;1.40;1.00
10566;DHT22;5331;48.148;16.326;2022-11-20T03:26:13;1.30;1.00
10566;DHT22;5331;48.148;16.326;2022-11-20T03:28:46;1.30;1.00
10566;DHT22;5331;48.148;16.326;2022-11-20T03:31:15;1.30;1.00
10566;DHT22;5331;48.148;16.326;2022-11-20T03:33:43;1.40;1.00
10566;DHT22;5331;48.148;16.326;2022-11-20T03:36:12;1.30;1.00
10566;DHT22;5331;48.148;16.326;2022-11-20T03:38:39;1.30;1.00
10566;DHT22;5331;48.148;16.326;2022-11-20T03:41:08;1.40;1.00
10566;DHT22;5331;48.148;16.326;2022-11-20T03:43:36;1.40;1.00
10566;DHT22;5331;48.148;16.326;2022-11-20T03:46:05;1.40;1.00
10566;DHT22;5331;48.148;16.326;2022-11-20T03:48:32;1.40;1.00
10566;DHT22;5331;48.148;16.326;2022-11-20T03:51:09;1.40;1.00
10566;DHT22;5331;48.148;16.326;2022-11-20T03:53:37;1.40;1.00
10566;DHT22;5331;48.148;16.326;2022-11-20T03:56:04;1.40;1.00
10566;DHT22;5331;48.148;16.326;2022-11-20T03:58:32;1.30;1.00
10566;DHT22;5331;48.148;16.326;2022-11-20T04:01:06;1.40;1.00
10566;DHT22;5331;48.148;16.326;2022-11-20T04:03:33;1.40;1.00
10566;DHT22;5331;48.148;16.326;2022-11-20T04:06:02;1.40;1.00
10566;DHT22;5331;48.148;16.326;2022-11-20T04:08:30;1.40;1.00
10566;DHT22;5331;48.148;16.326;2022-11-20T04:11:07;1.40;1.00
10566;DHT22;5331;48.148;16.326;2022-11-20T04:13:34;1.40;1.00
10566;DHT22;5331;48.148;16.326;2022-11-20T04:16:01;1.40;1.00
10566;DHT22;5331;48.148;16.326;2022-11-20T04:18:29;1.40;1.00
10566;DHT22;5331;48.148;16.326;2022-11-20T04:20:57;1.40;1.00
10566;DHT22;5331;48.148;16.326;2022-11-20T04:23:24;1.40;1.00
10566;DHT22;5331;48.148;16.326;2022-11-20T04:25:50;1.50;1.00
10566;DHT22;5331;48.148;16.326;2022-11-20T04:28:17;1.50;1.00
10566;DHT22;5331;48.148;16.326;2022-11-20T04:30:44;1.50;1.00
10566;DHT22;5331;48.148;16.326;2022-11-20T04:33:11;1.50;1.00
10566;DHT22;5331;48.148;16.326;2022-11-20T04:35:40;1.50;1.00
10566;DHT22;5331;48.148;16.326;2022-11-20T04:38:07;1.50;1.00
10566;DHT22;5331;48.148;16.326;2022-11-20T04:40:34;1.50;1.00
10566;DHT22;5331;48.148;16.326;2022-11-20T04:43:01;1.50;1.00
10566;DHT22;5331;48.148;16.326;2022-11-20T04:45:27;1.50;1.00
10566;DHT22;5331;48.148;16.326;2022-11-20T04:47:54;1.50;1.00
10566;DHT22;5331;48.148;16.326;2022-11-20T04:50:21;1.50;1.00
10566;DHT22;5331;48.148;16.326;2022-11-20T04:52:50;1.40;1.00
10566;DHT22;5331;48.148;16.326;2022-11-20T04:55:16;1.40;1.00
10566;DHT22;5331;48.148;16.326;2022-11-20T04:57:43;1.40;1.00
10566;DHT22;5331;48.148;16.326;2022-11-20T05:00:11;1.30;1.00
10566;DHT22;5331;48.148;16.326;2022-11-20T05:02:38;1.30;1.00
10566;DHT22;5331;48.148;16.326;2022-11-20T05:05:06;1.40;1.00
10566;DHT22;5331;48.148;16.326;2022-11-20T05:07:33;1.40;1.00
10566;DHT22;5331;48.148;16.326;2022-11-20T05:10:01;1.40;1.00
10566;DHT22;5331;48.148;16.326;2022-11-20T05:12:28;1.40;1.00
10566;DHT22;5331;48.148;16.326;2022-11-20T05:14:55;1.40;1.00
10566;DHT22;5331;48.148;16.326;2022-11-20T05:17:22;1.40;1.00
10566;DHT22;5331;48.148;16.326;2022-11-20T05:19:49;1.40;1.00
10566;DHT22;5331;48.148;16.326;2022-11-20T05:22:16;1.40;1.00
10566;DHT22;5331;48.148;16.326;2022-11-20T05:24:45;1.40;1.00
10566;DHT22;5331;48.148;16.326;2022-11-20T05:27:13;1.40;1.00
10566;DHT22;5331;48.148;16.326;2022-11-20T05:29:41;1.40;1.00
10566;DHT22;5331;48.148;16.326;2022-11-20T05:32:07;1.40;1.00
10566;DHT22;5331;48.148;16.326;2022-11-20T05:34:35;1.40;1.00
10566;DHT22;5331;48.148;16.326;2022-11-20T05:37:02;1.40;1.00
10566;DHT22;5331;48.148;16.326;2022-11-20T05:39:29;1.50;1.00
10566;DHT22;5331;48.148;16.326;2022-11-20T05:41:56;1.50;1.00
10566;DHT22;5331;48.148;16.326;2022-11-20T05:44:38;1.50;1.00
10566;DHT22;5331;48.148;16.326;2022-11-20T05:47:06;1.50;1.00
10566;DHT22;5331;48.148;16.326;2022-11-20T05:49:33;1.50;1.00
10566;DHT22;5331;48.148;16.326;2022-11-20T05:51:59;1.50;1.00
10566;DHT22;5331;48.148;16.326;2022-11-20T05:54:26;1.50;1.00
10566;DHT22;5331;48.148;16.326;2022-11-20T05:56:53;1.50;1.00
10566;DHT22;5331;48.148;16.326;2022-11-20T05:59:20;1.50;1.00
10566;DHT22;5331;48.148;16.326;2022-11-20T06:01:48;1.50;1.00
10566;DHT22;5331;48.148;16.326;2022-11-20T06:04:16;1.50;1.00
10566;DHT22;5331;48.148;16.326;2022-11-20T06:06:43;1.50;1.00
10566;DHT22;5331;48.148;16.326;2022-11-20T06:09:10;1.50;1.00
10566;DHT22;5331;48.148;16.326;2022-11-20T06:11:36;1.50;1.00
10566;DHT22;5331;48.148;16.326;2022-11-20T06:14:04;1.50;1.00
10566;DHT22;5331;48.148;16.326;2022-11-20T06:16:30;1.50;1.00
10566;DHT22;5331;48.148;16.326;2022-11-20T06:18:59;1.50;1.00
10566;DHT22;5331;48.148;16.326;2022-11-20T06:21:26;1.50;1.00
10566;DHT22;5331;48.148;16.326;2022-11-20T06:23:53;1.50;1.00
10566;DHT22;5331;48.148;16.326;2022-11-20T06:26:21;1.50;1.00
10566;DHT22;5331;48.148;16.326;2022-11-20T06:28:49;1.50;1.00
10566;DHT22;5331;48.148;16.326;2022-11-20T06:31:18;1.60;1.00
10566;DHT22;5331;48.148;16.326;2022-11-20T06:33:46;1.60;1.00
10566;DHT22;5331;48.148;16.326;2022-11-20T06:36:16;1.60;1.00
10566;DHT22;5331;48.148;16.326;2022-11-20T06:38:43;1.60;1.00
10566;DHT22;5331;48.148;16.326;2022-11-20T06:41:12;1.70;1.00
10566;DHT22;5331;48.148;16.326;2022-11-20T06:43:39;1.70;1.00
10566;DHT22;5331;48.148;16.326;2022-11-20T06:46:06;1.70;1.00
10566;DHT22;5331;48.148;16.326;2022-11-20T06:48:33;1.70;1.00
10566;DHT22;5331;48.148;16.326;2022-11-20T06:51:03;1.70;1.00
10566;DHT22;5331;48.148;16.326;2022-11-20T06:53:31;1.70;1.00
10566;DHT22;5331;48.148;16.326;2022-11-20T06:55:58;1.70;1.00
10566;DHT22;5331;48.148;16.326;2022-11-20T06:58:27;1.70;1.00
10566;DHT22;5331;48.148;16.326;2022-11-20T07:00:58;1.60;1.00
10566;DHT22;5331;48.148;16.326;2022-11-20T07:03:25;1.70;1.00
10566;DHT22;5331;48.148;16.326;2022-11-20T07:05:53;1.70;1.00
10566;DHT22;5331;48.148;16.326;2022-11-20T07:08:20;1.60;1.00
10566;DHT22;5331;48.148;16.326;2022-11-20T07:10:49;1.60;1.00
10566;DHT22;5331;48.148;16.326;2022-11-20T07:13:16;1.60;1.00
10566;DHT22;5331;48.148;16.326;2022-11-20T07:15:43;1.60;1.00
10566;DHT22;5331;48.148;16.326;2022-11-20T07:18:10;1.60;1.00
10566;DHT22;5331;48.148;16.326;2022-11-20T07:20:37;1.60;1.00
10566;DHT22;5331;48.148;16.326;2022-11-20T07:23:04;1.60;1.00
10566;DHT22;5331;48.148;16.326;2022-11-20T07:25:30;1.60;1.00
10566;DHT22;5331;48.148;16.326;2022-11-20T07:28:00;1.60;1.00
10566;DHT22;5331;48.148;16.326;2022-11-20T07:30:27;1.60;1.00
10566;DHT22;5331;48.148;16.326;2022-11-20T07:32:56;1.60;1.00
10566;DHT22;5331;48.148;16.326;2022-11-20T07:35:23;1.60;1.00
10566;DHT22;5331;48.148;16.326;2022-11-20T07:37:50;1.60;1.00
10566;DHT22;5331;48.148;16.326;2022-11-20T07:40:18;1.50;1.00
10566;DHT22;5331;48.148;16.326;2022-11-20T07:42:48;1.50;1.00
10566;DHT22;5331;48.148;16.326;2022-11-20T07:45:17;1.50;1.00
10566;DHT22;5331;48.148;16.326;2022-11-20T07:47:44;1.50;1.00
10566;DHT22;5331;48.148;16.326;2022-11-20T07:50:11;1.50;1.00
10566;DHT22;5331;48.148;16.326;2022-11-20T07:52:39;1.50;1.00
10566;DHT22;5331;48.148;16.326;2022-11-20T07:55:07;1.40;1.00
10566;DHT22;5331;48.148;16.326;2022-11-20T07:57:35;1.40;1.00
10566;DHT22;5331;48.148;16.326;2022-11-20T08:00:03;1.40;1.00
10566;DHT22;5331;48.148;16.326;2022-11-20T08:02:32;1.40;1.00
10566;DHT22;5331;48.148;16.326;2022-11-20T08:04:59;1.40;1.00
10566;DHT22;5331;48.148;16.326;2022-11-20T08:07:25;1.40;1.00
10566;DHT22;5331;48.148;16.326;2022-11-20T08:09:52;1.50;1.00
10566;DHT22;5331;48.148;16.326;2022-11-20T08:12:20;1.50;1.00
10566;DHT22;5331;48.148;16.326;2022-11-20T08:15:06;1.60;1.00
10566;DHT22;5331;48.148;16.326;2022-11-20T08:17:35;1.60;1.00
10566;DHT22;5331;48.148;16.326;2022-11-20T08:20:02;1.60;1.00
10566;DHT22;5331;48.148;16.326;2022-11-20T08:22:30;1.60;1.00
10566;DHT22;5331;48.148;16.326;2022-11-20T08:24:57;1.60;1.00
10566;DHT22;5331;48.148;16.326;2022-11-20T08:27:24;1.60;1.00
10566;DHT22;5331;48.148;16.326;2022-11-20T08:29:51;1.60;1.00
10566;DHT22;5331;48.148;16.326;2022-11-20T08:32:18;1.70;1.00
10566;DHT22;5331;48.148;16.326;2022-11-20T08:34:47;1.60;1.00
10566;DHT22;5331;48.148;16.326;2022-11-20T08:37:14;1.60;1.00
10566;DHT22;5331;48.148;16.326;2022-11-20T08:39:41;1.60;1.00
10566;DHT22;5331;48.148;16.326;2022-11-20T08:42:08;1.50;1.00
10566;DHT22;5331;48.148;16.326;2022-11-20T08:44:35;1.60;1.00
10566;DHT22;5331;48.148;16.326;2022-11-20T08:47:02;1.60;1.00
10566;DHT22;5331;48.148;16.326;2022-11-20T08:49:29;1.60;1.00
10566;DHT22;5331;48.148;16.326;2022-11-20T08:51:58;1.70;1.00
10566;DHT22;5331;48.148;16.326;2022-11-20T08:54:25;1.70;1.00
10566;DHT22;5331;48.148;16.326;2022-11-20T08:56:52;1.70;1.00
10566;DHT22;5331;48.148;16.326;2022-11-20T08:59:21;1.70;1.00
10566;DHT22;5331;48.148;16.326;2022-11-20T09:01:49;1.70;1.00
10566;DHT22;5331;48.148;16.326;2022-11-20T09:04:16;1.70;1.00
10566;DHT22;5331;48.148;16.326;2022-11-20T09:06:43;1.80;1.00
10566;DHT22;5331;48.148;16.326;2022-11-20T09:09:11;1.80;1.00
10566;DHT22;5331;48.148;16.326;2022-11-20T09:11:38;1.90;1.00
10566;DHT22;5331;48.148;16.326;2022-11-20T09:14:05;2.10;1.00
10566;DHT22;5331;48.148;16.326;2022-11-20T09:16:32;2.10;1.00
10566;DHT22;5331;48.148;16.326;2022-11-20T09:18:59;2.20;1.00
10566;DHT22;5331;48.148;16.326;2022-11-20T09:21:26;2.20;1.00
10566;DHT22;5331;48.148;16.326;2022-11-20T09:23:53;2.20;1.00
10566;DHT22;5331;48.148;16.326;2022-11-20T09:26:22;2.30;1.00
10566;DHT22;5331;48.148;16.326;2022-11-20T09:28:49;2.30;1.00
10566;DHT22;5331;48.148;16.326;2022-11-20T09:31:21;2.30;1.00
10566;DHT22;5331;48.148;16.326;2022-11-20T09:33:49;2.30;1.00
10566;DHT22;5331;48.148;16.326;2022-11-20T09:36:16;2.40;1.00
10566;DHT22;5331;48.148;16.326;2022-11-20T09:38:44;2.40;1.00
10566;DHT22;5331;48.148;16.326;2022-11-20T09:44:18;2.40;1.00
10566;DHT22;5331;48.148;16.326;2022-11-20T09:46:52;2.30;1.00
10566;DHT22;5331;48.148;16.326;2022-11-20T09:49:29;2.30;1.00
10566;DHT22;5331;48.148;16.326;2022-11-20T09:52:00;2.30;1.00
10566;DHT22;5331;48.148;16.326;2022-11-20T09:54:30;2.20;1.00
10566;DHT22;5331;48.148;16.326;2022-11-20T09:57:00;2.30;1.00
10566;DHT22;5331;48.148;16.326;2022-11-20T09:59:41;2.40;1.00
10566;DHT22;5331;48.148;16.326;2022-11-20T10:02:16;2.40;1.00
10566;DHT22;5331;48.148;16.326;2022-11-20T10:04:49;2.40;1.00
10566;DHT22;5331;48.148;16.326;2022-11-20T10:07:23;2.40;1.00
10566;DHT22;5331;48.148;16.326;2022-11-20T10:09:54;2.40;1.00
10566;DHT22;5331;48.148;16.326;2022-11-20T10:12:27;2.50;1.00
10566;DHT22;5331;48.148;16.326;2022-11-20T10:15:07;2.50;1.00
10566;DHT22;5331;48.148;16.326;2022-11-20T10:17:58;2.60;1.00
10566;DHT22;5331;48.148;16.326;2022-11-20T10:20:30;2.70;1.00
10566;DHT22;5331;48.148;16.326;2022-11-20T10:23:23;2.80;1.00
10566;DHT22;5331;48.148;16.326;2022-11-20T10:25:58;2.80;1.00
10566;DHT22;5331;48.148;16.326;2022-11-20T10:28:43;2.80;1.00
10566;DHT22;5331;48.148;16.326;2022-11-20T10:31:26;2.70;1.00
10566;DHT22;5331;48.148;16.326;2022-11-20T10:33:57;2.70;1.00
10566;DHT22;5331;48.148;16.326;2022-11-20T10:36:28;2.70;1.00
10566;DHT22;5331;48.148;16.326;2022-11-20T10:38:59;2.80;1.00
10566;DHT22;5331;48.148;16.326;2022-11-20T10:41:30;2.90;1.00
10566;DHT22;5331;48.148;16.326;2022-11-20T10:44:03;3.10;1.00
10566;DHT22;5331;48.148;16.326;2022-11-20T10:46:38;3.20;1.00
10566;DHT22;5331;48.148;16.326;2022-11-20T10:49:12;3.20;1.00
10566;DHT22;5331;48.148;16.326;2022-11-20T10:51:50;3.10;1.00
10566;DHT22;5331;48.148;16.326;2022-11-20T10:54:24;3.10;1.00
10566;DHT22;5331;48.148;16.326;2022-11-20T10:56:58;3.10;1.00
10566;DHT22;5331;48.148;16.326;2022-11-20T10:59:38;3.10;1.00
10566;DHT22;5331;48.148;16.326;2022-11-20T11:02:20;3.40;1.00
10566;DHT22;5331;48.148;16.326;2022-11-20T11:04:49;3.60;1.00
10566;DHT22;5331;48.148;16.326;2022-11-20T11:07:20;3.80;1.00
10566;DHT22;5331;48.148;16.326;2022-11-20T11:09:50;3.90;1.00
10566;DHT22;5331;48.148;16.326;2022-11-20T11:12:19;3.90;1.00
10566;DHT22;5331;48.148;16.326;2022-11-20T11:14:49;4.00;1.00
10566;DHT22;5331;48.148;16.326;2022-11-20T11:17:26;4.00;1.00
10566;DHT22;5331;48.148;16.326;2022-11-20T11:20:02;4.00;1.00
10566;DHT22;5331;48.148;16.326;2022-11-20T11:22:31;4.00;1.00
10566;DHT22;5331;48.148;16.326;2022-11-20T11:24:59;4.00;1.00
10566;DHT22;5331;48.148;16.326;2022-11-20T11:27:26;4.10;1.00
10566;DHT22;5331;48.148;16.326;2022-11-20T11:30:17;4.20;1.00
10566;DHT22;5331;48.148;16.326;2022-11-20T11:32:47;4.20;1.00
10566;DHT22;5331;48.148;16.326;2022-11-20T11:35:24;4.20;1.00
10566;DHT22;5331;48.148;16.326;2022-11-20T11:37:54;4.30;1.00
10566;DHT22;5331;48.148;16.326;2022-11-20T11:40:22;4.20;1.00
10566;DHT22;5331;48.148;16.326;2022-11-20T11:42:59;4.20;1.00
10566;DHT22;5331;48.148;16.326;2022-11-20T11:45:26;4.30;1.00
10566;DHT22;5331;48.148;16.326;2022-11-20T11:47:55;4.20;1.00
10566;DHT22;5331;48.148;16.326;2022-11-20T11:50:24;4.30;1.00
10566;DHT22;5331;48.148;16.326;2022-11-20T11:52:58;4.30;1.00
10566;DHT22;5331;48.148;16.326;2022-11-20T11:55:33;4.40;1.00
10566;DHT22;5331;48.148;16.326;2022-11-20T11:58:14;4.60;1.00
10566;DHT22;5331;48.148;16.326;2022-11-20T12:00:51;4.90;1.00
10566;DHT22;5331;48.148;16.326;2022-11-20T12:03:28;5.00;1.00
10566;DHT22;5331;48.148;16.326;2022-11-20T12:05:59;5.20;1.00
10566;DHT22;5331;48.148;16.326;2022-11-20T12:08:31;5.20;1.00
10566;DHT22;5331;48.148;16.326;2022-11-20T12:11:04;5.30;1.00
10566;DHT22;5331;48.148;16.326;2022-11-20T12:13:41;5.30;1.00
10566;DHT22;5331;48.148;16.326;2022-11-20T12:16:13;5.40;1.00
10566;DHT22;5331;48.148;16.326;2022-11-20T12:18:43;5.50;1.00
10566;DHT22;5331;48.148;16.326;2022-11-20T12:21:20;5.50;1.00
10566;DHT22;5331;48.148;16.326;2022-11-20T12:24:06;5.60;1.00
10566;DHT22;5331;48.148;16.326;2022-11-20T12:26:47;5.60;1.00
10566;DHT22;5331;48.148;16.326;2022-11-20T12:29:26;5.70;1.00
10566;DHT22;5331;48.148;16.326;2022-11-20T12:32:29;5.90;1.00
10566;DHT22;5331;48.148;16.326;2022-11-20T12:35:08;6.00;1.00
10566;DHT22;5331;48.148;16.326;2022-11-20T12:37:45;6.20;1.00
10566;DHT22;5331;48.148;16.326;2022-11-20T12:40:28;6.20;1.00
10566;DHT22;5331;48.148;16.326;2022-11-20T12:43:04;6.30;1.00
10566;DHT22;5331;48.148;16.326;2022-11-20T12:46:05;6.40;1.00
10566;DHT22;5331;48.148;16.326;2022-11-20T12:51:37;6.30;1.00
10566;DHT22;5331;48.148;16.326;2022-11-20T12:54:31;6.30;1.00
10566;DHT22;5331;48.148;16.326;2022-11-20T12:57:08;6.40;1.00
10566;DHT22;5331;48.148;16.326;2022-11-20T13:03:11;6.40;1.00
10566;DHT22;5331;48.148;16.326;2022-11-20T13:05:50;6.30;1.00
10566;DHT22;5331;48.148;16.326;2022-11-20T13:08:23;6.30;1.00
10566;DHT22;5331;48.148;16.326;2022-11-20T13:10:56;6.30;1.00
10566;DHT22;5331;48.148;16.326;2022-11-20T13:13:33;6.40;1.00
10566;DHT22;5331;48.148;16.326;2022-11-20T13:16:05;6.40;1.00
10566;DHT22;5331;48.148;16.326;2022-11-20T13:18:38;6.40;1.00
10566;DHT22;5331;48.148;16.326;2022-11-20T13:21:17;6.30;1.00
10566;DHT22;5331;48.148;16.326;2022-11-20T13:23:47;6.40;1.00
10566;DHT22;5331;48.148;16.326;2022-11-20T13:26:17;6.40;1.00
10566;DHT22;5331;48.148;16.326;2022-11-20T13:28:46;6.50;1.00
10566;DHT22;5331;48.148;16.326;2022-11-20T13:31:30;6.40;1.00
10566;DHT22;5331;48.148;16.326;2022-11-20T13:34:00;6.30;1.00
10566;DHT22;5331;48.148;16.326;2022-11-20T13:36:30;6.30;1.00
10566;DHT22;5331;48.148;16.326;2022-11-20T13:39:01;6.30;1.00
10566;DHT22;5331;48.148;16.326;2022-11-20T13:41:31;6.30;1.00
10566;DHT22;5331;48.148;16.326;2022-11-20T13:44:13;6.30;1.00
10566;DHT22;5331;48.148;16.326;2022-11-20T13:46:43;6.40;1.00
10566;DHT22;5331;48.148;16.326;2022-11-20T13:49:19;6.50;1.00
10566;DHT22;5331;48.148;16.326;2022-11-20T13:51:51;6.40;1.00
10566;DHT22;5331;48.148;16.326;2022-11-20T13:54:51;6.40;1.00
10566;DHT22;5331;48.148;16.326;2022-11-20T14:00:22;6.50;1.00
10566;DHT22;5331;48.148;16.326;2022-11-20T14:03:00;6.50;1.00
10566;DHT22;5331;48.148;16.326;2022-11-20T14:05:33;6.50;1.00
10566;DHT22;5331;48.148;16.326;2022-11-20T14:08:03;6.50;1.00
10566;DHT22;5331;48.148;16.326;2022-11-20T14:10:45;6.40;1.00
10566;DHT22;5331;48.148;16.326;2022-11-20T14:13:18;6.30;1.00
10566;DHT22;5331;48.148;16.326;2022-11-20T14:15:45;6.30;1.00
10566;DHT22;5331;48.148;16.326;2022-11-20T14:18:15;6.30;1.00
10566;DHT22;5331;48.148;16.326;2022-11-20T14:20:43;6.30;1.00
10566;DHT22;5331;48.148;16.326;2022-11-20T14:23:11;6.20;1.00
10566;DHT22;5331;48.148;16.326;2022-11-20T14:25:45;6.20;1.00
10566;DHT22;5331;48.148;16.326;2022-11-20T14:28:24;6.20;1.00
10566;DHT22;5331;48.148;16.326;2022-11-20T14:30:54;6.10;1.00
10566;DHT22;5331;48.148;16.326;2022-11-20T14:33:23;6.10;1.00
10566;DHT22;5331;48.148;16.326;2022-11-20T14:35:53;6.10;1.00
10566;DHT22;5331;48.148;16.326;2022-11-20T14:38:25;6.10;1.00
10566;DHT22;5331;48.148;16.326;2022-11-20T14:41:06;6.00;1.00
10566;DHT22;5331;48.148;16.326;2022-11-20T14:43:34;6.10;1.00
10566;DHT22;5331;48.148;16.326;2022-11-20T14:46:07;6.00;1.00
10566;DHT22;5331;48.148;16.326;2022-11-20T14:48:39;5.90;1.00
10566;DHT22;5331;48.148;16.326;2022-11-20T14:51:09;6.00;1.00
10566;DHT22;5331;48.148;16.326;2022-11-20T14:53:40;5.90;1.00
10566;DHT22;5331;48.148;16.326;2022-11-20T14:56:10;5.90;1.00
10566;DHT22;5331;48.148;16.326;2022-11-20T14:58:40;5.80;1.00
10566;DHT22;5331;48.148;16.326;2022-11-20T15:01:12;5.70;1.00
10566;DHT22;5331;48.148;16.326;2022-11-20T15:03:40;5.70;1.00
10566;DHT22;5331;48.148;16.326;2022-11-20T15:06:11;5.60;1.00
10566;DHT22;5331;48.148;16.326;2022-11-20T15:08:50;5.60;1.00
10566;DHT22;5331;48.148;16.326;2022-11-20T15:11:26;5.40;1.00
10566;DHT22;5331;48.148;16.326;2022-11-20T15:13:55;5.40;1.00
10566;DHT22;5331;48.148;16.326;2022-11-20T15:16:24;5.40;1.00
10566;DHT22;5331;48.148;16.326;2022-11-20T15:18:53;5.20;1.00
10566;DHT22;5331;48.148;16.326;2022-11-20T15:21:23;5.10;1.00
10566;DHT22;5331;48.148;16.326;2022-11-20T15:23:55;5.10;1.00
10566;DHT22;5331;48.148;16.326;2022-11-20T15:26:27;5.00;1.00
10566;DHT22;5331;48.148;16.326;2022-11-20T15:28:56;4.90;1.00
10566;DHT22;5331;48.148;16.326;2022-11-20T15:31:23;4.90;1.00
10566;DHT22;5331;48.148;16.326;2022-11-20T15:33:53;4.80;1.00
10566;DHT22;5331;48.148;16.326;2022-11-20T15:36:22;4.70;1.00
10566;DHT22;5331;48.148;16.326;2022-11-20T15:38:49;4.60;1.00
10566;DHT22;5331;48.148;16.326;2022-11-20T15:41:17;4.40;1.00
10566;DHT22;5331;48.148;16.326;2022-11-20T15:43:47;4.40;1.00
10566;DHT22;5331;48.148;16.326;2022-11-20T15:46:18;4.30;1.00
10566;DHT22;5331;48.148;16.326;2022-11-20T15:48:51;4.20;1.00
10566;DHT22;5331;48.148;16.326;2022-11-20T15:51:26;4.20;1.00
10566;DHT22;5331;48.148;16.326;2022-11-20T15:53:56;4.10;1.00
10566;DHT22;5331;48.148;16.326;2022-11-20T15:56:24;4.00;1.00
10566;DHT22;5331;48.148;16.326;2022-11-20T15:58:56;4.40;1.00
10566;DHT22;5331;48.148;16.326;2022-11-20T16:01:25;5.30;1.00
10566;DHT22;5331;48.148;16.326;2022-11-20T16:03:53;5.50;1.00
10566;DHT22;5331;48.148;16.326;2022-11-20T16:06:25;5.20;1.00
10566;DHT22;5331;48.148;16.326;2022-11-20T16:08:53;4.90;1.00
10566;DHT22;5331;48.148;16.326;2022-11-20T16:11:21;4.60;1.00
10566;DHT22;5331;48.148;16.326;2022-11-20T16:13:51;4.40;1.00
10566;DHT22;5331;48.148;16.326;2022-11-20T16:16:38;4.20;1.00
10566;DHT22;5331;48.148;16.326;2022-11-20T16:19:10;4.00;1.00
10566;DHT22;5331;48.148;16.326;2022-11-20T16:21:38;3.90;1.00
10566;DHT22;5331;48.148;16.326;2022-11-20T16:24:08;3.90;1.00
10566;DHT22;5331;48.148;16.326;2022-11-20T16:26:39;3.80;1.00
10566;DHT22;5331;48.148;16.326;2022-11-20T16:29:07;3.80;1.00
10566;DHT22;5331;48.148;16.326;2022-11-20T16:31:38;3.70;1.00
10566;DHT22;5331;48.148;16.326;2022-11-20T16:34:07;3.50;1.00